Tell, Pennsylvania
Current Conditions -  °F | °C
As of 5:53 AM on Sunday 23 Nov 2014 (Local Time) from KAOO Reporting Station
Overcast Overcast  
Wind Chill: 45°   Ceiling: 9500
Heat Index: 48°   Visibility: 10mi
Dew Point: 29°   Wind: 6mph
Humidity: 48%   Direction: 230°SW
Pressure: 30.12"   Gusts: NA
Location:  40.2561°N, 77.7747°W
Report Text: KAOO 231053Z AUTO 23005KT 10SM OVC095 09/M02 A3012 RMK AO2 SLP205 T00891017
Loading
Personal Weather Stations






























Interactive Weather Map New forecast layout! Learn more

10-Day Weather Forecast

Advertisements
Track Severe Weather on mobile